Weather at Guangzhou Baiyun International Airport

Public forecast

Using degrees Celsius for public forecast. Weather courtesy of forecast.io.

Current aviation weather report (METAR) for Guangzhou Baiyun International Airport

Report is more than 6 hours old.

2022/11/14 15:30 (retrieved 2 years ago)

ZGGG 141530Z 34001MPS CAVOK 24/19 Q1015 NOSIG

Aviation forecast (TAF) for Guangzhou Baiyun International Airport

Forecast is more than 12 hours old.

2023/02/22 18:10 (retrieved 1 year ago)

TAF ZGGG 221503Z 2218/2318 02003MPS 6000 SCT040 TX25/2307Z TN13/2222Z